createdAt,value
2023-05-05T00:02:14.878Z,9.32
2023-05-05T00:04:41.188Z,9.38
2023-05-05T00:07:07.468Z,10.60
2023-05-05T00:09:33.783Z,13.02
2023-05-05T00:12:00.321Z,10.80
2023-05-05T00:14:26.617Z,7.35
2023-05-05T00:16:52.968Z,10.23
2023-05-05T00:19:19.348Z,11.70
2023-05-05T00:21:45.755Z,9.35
2023-05-05T00:24:12.127Z,11.63
2023-05-05T00:26:38.539Z,9.40
2023-05-05T00:29:05.074Z,8.45
2023-05-05T00:31:31.493Z,7.18
2023-05-05T00:33:58.917Z,9.73
2023-05-05T00:36:25.292Z,7.97
2023-05-05T00:38:51.841Z,9.63
2023-05-05T00:41:18.130Z,10.15
2023-05-05T00:43:44.425Z,10.20
2023-05-05T00:46:23.313Z,7.28
2023-05-05T00:48:50.602Z,10.30
2023-05-05T00:51:18.121Z,14.48
2023-05-05T00:53:45.113Z,7.07
2023-05-05T00:56:16.722Z,9.52
2023-05-05T00:58:44.189Z,11.27
2023-05-05T01:01:11.992Z,8.50
2023-05-05T01:03:40.376Z,12.52
2023-05-05T01:06:30.651Z,8.45
2023-05-05T01:09:15.732Z,7.57
2023-05-05T01:11:51.328Z,7.63
2023-05-05T01:14:24.399Z,9.75
2023-05-05T01:16:59.015Z,8.82
2023-05-05T01:19:40.663Z,6.53
2023-05-05T01:22:11.484Z,11.65
2023-05-05T01:24:55.694Z,8.27
2023-05-05T01:27:44.679Z,10.38
2023-05-05T01:30:34.243Z,21.05
2023-05-05T01:33:08.255Z,12.95
2023-05-05T01:35:41.768Z,14.23
2023-05-05T01:38:14.527Z,14.80
2023-05-05T01:40:46.918Z,15.40
2023-05-05T01:43:15.132Z,9.70
2023-05-05T01:45:44.560Z,8.25
2023-05-05T01:48:13.084Z,10.00
2023-05-05T01:50:41.670Z,13.38
2023-05-05T01:53:09.745Z,12.18
2023-05-05T01:55:39.168Z,12.73
2023-05-05T01:58:06.972Z,8.90
2023-05-05T02:00:34.460Z,9.70
2023-05-05T02:03:04.317Z,9.57
2023-05-05T02:05:32.880Z,11.05
2023-05-05T02:08:00.250Z,10.23
2023-05-05T02:10:28.221Z,9.73
2023-05-05T02:12:55.563Z,10.90
2023-05-05T02:15:23.471Z,9.98
2023-05-05T02:17:52.693Z,10.75
2023-05-05T02:20:20.334Z,12.98
2023-05-05T02:22:48.133Z,10.07
2023-05-05T02:25:14.680Z,16.05
2023-05-05T02:27:44.110Z,14.57
2023-05-05T02:30:14.092Z,11.82
2023-05-05T02:32:46.933Z,11.00
2023-05-05T02:35:22.759Z,12.95
2023-05-05T02:38:02.565Z,8.68
2023-05-05T02:40:35.412Z,8.45
2023-05-05T02:43:09.954Z,12.30
2023-05-05T02:45:36.413Z,10.60
2023-05-05T02:48:06.745Z,9.13
2023-05-05T02:50:37.546Z,12.85
2023-05-05T02:53:29.150Z,10.25
2023-05-05T02:56:05.922Z,7.47
2023-05-05T02:58:54.329Z,11.65
2023-05-05T03:01:27.631Z,13.02
2023-05-05T03:04:11.940Z,9.68
2023-05-05T03:06:48.574Z,11.23
2023-05-05T03:10:02.131Z,11.40
2023-05-05T03:12:37.302Z,8.25
2023-05-05T03:15:15.749Z,11.07
2023-05-05T03:17:44.015Z,11.85
2023-05-05T03:20:12.356Z,8.43
2023-05-05T03:22:41.599Z,12.57
2023-05-05T03:25:11.955Z,10.40
2023-05-05T03:27:38.431Z,7.65
2023-05-05T03:30:06.665Z,9.77
2023-05-05T03:32:35.824Z,15.00
2023-05-05T03:35:02.229Z,14.50
2023-05-05T03:37:32.467Z,11.77
2023-05-05T03:39:59.100Z,12.68
2023-05-05T03:42:25.553Z,10.20
2023-05-05T03:44:53.486Z,14.95
2023-05-05T03:47:24.366Z,12.65
2023-05-05T03:49:51.359Z,8.98
2023-05-05T03:52:18.069Z,12.63
2023-05-05T03:54:45.960Z,11.48
2023-05-05T03:57:12.271Z,13.40
2023-05-05T03:59:38.579Z,11.07
2023-05-05T04:02:05.299Z,11.90
2023-05-05T04:04:31.673Z,10.35
2023-05-05T04:06:58.328Z,8.95
2023-05-05T04:09:24.738Z,10.85
2023-05-05T04:11:51.077Z,8.75
2023-05-05T04:14:17.618Z,10.93
2023-05-05T04:16:44.335Z,16.05
2023-05-05T04:19:12.924Z,13.77
2023-05-05T04:21:39.912Z,11.52
2023-05-05T04:24:06.678Z,14.40
2023-05-05T04:26:33.027Z,15.25
2023-05-05T04:28:59.752Z,15.35
2023-05-05T04:31:26.242Z,14.27
2023-05-05T04:33:52.683Z,14.52
2023-05-05T04:36:19.518Z,11.93
2023-05-05T04:38:47.139Z,12.55
2023-05-05T04:41:13.579Z,12.35
2023-05-05T04:43:42.037Z,11.35
2023-05-05T04:46:08.442Z,14.32
2023-05-05T04:48:37.815Z,17.23
2023-05-05T04:51:05.711Z,13.23
2023-05-05T04:53:32.512Z,13.38
2023-05-05T04:56:01.776Z,11.00
2023-05-05T04:58:28.874Z,12.07
2023-05-05T05:00:55.372Z,11.63
2023-05-05T05:03:21.822Z,10.75
2023-05-05T05:05:48.340Z,9.02
2023-05-05T05:08:18.065Z,12.02
2023-05-05T05:10:45.038Z,13.75
2023-05-05T05:13:12.952Z,15.57
2023-05-05T05:15:39.678Z,38.72
2023-05-05T05:18:06.453Z,18.98
2023-05-05T05:20:33.268Z,23.73
2023-05-05T05:23:01.980Z,27.65
2023-05-05T05:25:29.851Z,41.22
2023-05-05T05:28:08.950Z,20.88
2023-05-05T05:30:41.506Z,32.17
2023-05-05T05:33:10.515Z,17.80
2023-05-05T05:35:37.016Z,13.50
2023-05-05T05:38:03.947Z,19.20
2023-05-05T05:40:31.325Z,27.73
2023-05-05T05:42:58.400Z,16.08
2023-05-05T05:45:25.582Z,14.98
2023-05-05T05:47:52.058Z,13.35
2023-05-05T05:50:18.542Z,26.30
2023-05-05T05:52:44.966Z,14.88
2023-05-05T05:55:11.461Z,20.38
2023-05-05T05:57:38.813Z,14.38
2023-05-05T06:00:07.728Z,12.65
2023-05-05T06:02:43.006Z,15.65
2023-05-05T06:05:13.760Z,14.02
2023-05-05T06:07:42.020Z,11.98
2023-05-05T06:10:25.699Z,15.30
2023-05-05T06:12:57.651Z,14.90
2023-05-05T06:15:25.434Z,11.48
2023-05-05T06:17:52.427Z,13.88
2023-05-05T06:20:18.955Z,12.25
2023-05-05T06:22:45.410Z,15.95
2023-05-05T06:25:11.875Z,23.33
2023-05-05T06:27:38.393Z,19.63
2023-05-05T06:30:06.665Z,23.30
2023-05-05T06:32:33.108Z,19.83
2023-05-05T06:34:59.451Z,18.50
2023-05-05T06:37:25.798Z,21.38
2023-05-05T06:39:52.129Z,28.25
2023-05-05T06:42:18.449Z,31.13
2023-05-05T06:44:45.641Z,23.67
2023-05-05T06:47:11.965Z,22.88
2023-05-05T06:49:38.271Z,17.98
2023-05-05T06:52:04.852Z,38.15
2023-05-05T06:54:31.165Z,27.88
2023-05-05T06:56:59.429Z,30.95
2023-05-05T06:59:26.629Z,26.25
2023-05-05T07:01:52.951Z,19.90
2023-05-05T07:04:19.426Z,24.45
2023-05-05T07:06:45.793Z,19.90
2023-05-05T07:09:12.597Z,15.05
2023-05-05T07:11:38.901Z,13.90
2023-05-05T07:14:05.239Z,13.45
2023-05-05T07:16:34.460Z,12.43
2023-05-05T07:19:00.873Z,21.05
2023-05-05T07:21:27.227Z,30.33
2023-05-05T07:23:53.579Z,25.08
2023-05-05T07:26:19.926Z,27.38
2023-05-05T07:28:46.278Z,21.60
2023-05-05T07:31:12.585Z,15.30
2023-05-05T07:33:39.000Z,29.58
2023-05-05T07:36:05.735Z,25.88
2023-05-05T07:38:32.113Z,18.88
2023-05-05T07:40:58.530Z,22.48
2023-05-05T07:43:24.864Z,22.95
2023-05-05T07:45:51.171Z,32.72
2023-05-05T07:48:17.548Z,21.70
2023-05-05T07:50:43.911Z,16.27
2023-05-05T07:53:14.584Z,13.00
2023-05-05T07:58:08.322Z,14.75
2023-05-05T08:00:34.708Z,9.20
2023-05-05T08:03:01.151Z,16.63
2023-05-05T08:05:27.577Z,10.98
2023-05-05T08:07:53.909Z,12.18
2023-05-05T08:10:21.792Z,10.63
2023-05-05T08:12:48.518Z,10.45
2023-05-05T08:15:14.819Z,9.35
2023-05-05T08:17:49.029Z,7.95
2023-05-05T08:20:20.923Z,9.57
2023-05-05T08:22:47.954Z,9.85
2023-05-05T08:25:14.576Z,9.40
2023-05-05T08:27:42.419Z,10.57
2023-05-05T08:30:09.789Z,9.77
2023-05-05T08:32:36.135Z,9.15
2023-05-05T08:35:06.328Z,8.88
2023-05-05T08:37:33.105Z,7.45
2023-05-05T08:39:59.458Z,8.40
2023-05-05T08:42:36.168Z,5.28
2023-05-05T08:45:04.536Z,5.95
2023-05-05T08:47:32.032Z,8.63
2023-05-05T08:49:59.893Z,7.78
2023-05-05T08:52:32.675Z,6.70
2023-05-05T08:55:27.128Z,7.97
2023-05-05T08:57:57.980Z,5.18
2023-05-05T09:00:26.330Z,6.90
2023-05-05T09:02:54.561Z,3.30
2023-05-05T09:05:21.544Z,3.65
2023-05-05T09:07:47.893Z,6.00
2023-05-05T09:10:14.470Z,4.03
2023-05-05T09:12:41.272Z,3.78
2023-05-05T09:15:12.606Z,4.22
2023-05-05T09:17:40.314Z,4.65
2023-05-05T09:20:09.555Z,4.85
2023-05-05T09:22:43.788Z,2.50
2023-05-05T09:25:18.085Z,3.88
2023-05-05T09:27:47.263Z,2.53
2023-05-05T09:30:23.146Z,3.13
2023-05-05T09:32:51.504Z,5.03
2023-05-05T09:35:19.044Z,2.55
2023-05-05T09:37:45.705Z,4.32
2023-05-05T09:40:14.456Z,4.15
2023-05-05T09:42:41.416Z,4.78
2023-05-05T09:45:16.884Z,3.50
2023-05-05T09:47:43.499Z,4.30
2023-05-05T09:50:11.346Z,3.05
2023-05-05T09:52:37.818Z,7.35
2023-05-05T09:55:04.379Z,3.05
2023-05-05T09:57:33.631Z,7.38
2023-05-05T10:00:02.386Z,5.00
2023-05-05T10:02:38.460Z,2.72
2023-05-05T10:05:08.455Z,2.42
2023-05-05T10:07:35.968Z,2.60
2023-05-05T10:10:08.164Z,2.28
2023-05-05T10:12:36.760Z,4.50
2023-05-05T10:15:07.681Z,6.40
2023-05-05T10:17:38.103Z,4.38
2023-05-05T10:20:07.389Z,2.50
2023-05-05T10:22:35.019Z,2.97
2023-05-05T10:25:12.454Z,4.28
2023-05-05T10:27:44.624Z,3.40
2023-05-05T10:30:20.496Z,3.50
2023-05-05T10:32:54.427Z,2.53
2023-05-05T10:35:35.425Z,4.53
2023-05-05T10:38:03.486Z,2.03
2023-05-05T10:40:30.411Z,5.18
2023-05-05T10:42:58.186Z,4.13
2023-05-05T10:45:24.867Z,1.73
2023-05-05T10:47:52.733Z,1.23
2023-05-05T10:50:35.023Z,3.67
2023-05-05T10:53:21.857Z,1.85
2023-05-05T10:56:05.720Z,3.15
2023-05-05T10:58:43.777Z,2.22
2023-05-05T11:01:32.342Z,2.60
2023-05-05T11:04:21.947Z,1.77
2023-05-05T11:07:10.237Z,2.90
2023-05-05T11:09:54.999Z,5.03
2023-05-05T11:12:21.470Z,1.92
2023-05-05T11:14:47.815Z,3.58
2023-05-05T11:17:49.237Z,2.30
2023-05-05T11:20:15.819Z,2.15
2023-05-05T11:23:02.074Z,5.38
2023-05-05T11:25:34.552Z,2.08
2023-05-05T11:28:08.288Z,3.22
2023-05-05T11:30:36.049Z,4.32
2023-05-05T11:33:25.703Z,3.30
2023-05-05T11:35:56.491Z,4.68
2023-05-05T11:41:01.395Z,1.02
2023-05-05T11:43:27.767Z,2.97
2023-05-05T11:46:11.718Z,2.78
2023-05-05T11:48:47.612Z,3.97
2023-05-05T11:51:18.845Z,1.75
2023-05-05T11:53:49.874Z,1.80
2023-05-05T11:56:21.744Z,2.63
2023-05-05T11:58:49.072Z,3.30
2023-05-05T12:01:15.612Z,1.27
2023-05-05T12:03:43.176Z,0.73
2023-05-05T12:06:09.990Z,2.95
2023-05-05T12:08:37.257Z,0.93
2023-05-05T12:11:07.445Z,9.35
2023-05-05T12:13:34.593Z,2.00
2023-05-05T12:16:10.998Z,3.33
2023-05-05T12:18:37.528Z,0.80
2023-05-05T12:21:20.377Z,2.15
2023-05-05T12:23:46.778Z,1.77
2023-05-05T12:26:30.409Z,2.60
2023-05-05T12:28:58.153Z,2.08
2023-05-05T12:31:38.092Z,1.20
2023-05-05T12:34:06.271Z,2.43
2023-05-05T12:36:33.857Z,1.35
2023-05-05T12:39:00.393Z,2.22
2023-05-05T12:41:27.292Z,1.20
2023-05-05T12:43:58.154Z,2.67
2023-05-05T12:46:24.840Z,2.97
2023-05-05T12:49:04.573Z,1.77
2023-05-05T12:51:35.824Z,2.92
2023-05-05T12:54:03.735Z,5.13
2023-05-05T12:56:36.058Z,0.98
2023-05-05T12:59:07.907Z,2.28
2023-05-05T13:01:35.905Z,2.58
2023-05-05T13:04:07.460Z,2.17
2023-05-05T13:06:34.111Z,1.60
2023-05-05T13:09:00.517Z,3.08
2023-05-05T13:11:26.822Z,1.30
2023-05-05T13:13:53.239Z,1.92
2023-05-05T13:16:19.594Z,1.30
2023-05-05T13:18:49.745Z,2.78
2023-05-05T13:21:16.548Z,2.95
2023-05-05T13:23:44.122Z,2.67
2023-05-05T13:26:11.314Z,2.80
2023-05-05T13:28:38.035Z,3.92
2023-05-05T13:31:04.734Z,1.77
2023-05-05T13:33:33.827Z,2.47
2023-05-05T13:36:01.544Z,2.25
2023-05-05T13:38:27.954Z,2.70
2023-05-05T13:40:54.496Z,2.67
2023-05-05T13:43:20.850Z,2.75
2023-05-05T13:45:47.139Z,4.78
2023-05-05T13:48:13.644Z,1.73
2023-05-05T13:50:39.935Z,2.95
2023-05-05T13:53:06.222Z,1.70
2023-05-05T13:55:32.644Z,3.40
2023-05-05T13:57:58.952Z,3.05
2023-05-05T14:00:26.362Z,1.80
2023-05-05T14:02:52.832Z,3.13
2023-05-05T14:05:20.250Z,2.10
2023-05-05T14:07:47.464Z,3.97
2023-05-05T14:10:13.838Z,3.38
2023-05-05T14:12:40.270Z,2.35
2023-05-05T14:15:07.400Z,2.42
2023-05-05T14:17:34.154Z,2.50
2023-05-05T14:20:00.488Z,3.58
2023-05-05T14:22:27.359Z,1.83
2023-05-05T14:24:53.648Z,3.10
2023-05-05T14:27:20.025Z,2.88
2023-05-05T14:29:46.351Z,3.42
2023-05-05T14:32:12.705Z,2.13
2023-05-05T14:34:39.050Z,2.58
2023-05-05T14:37:05.430Z,2.67
2023-05-05T14:39:31.721Z,2.63
2023-05-05T14:41:58.022Z,6.85
2023-05-05T14:44:24.326Z,3.80
2023-05-05T14:46:51.269Z,5.88
2023-05-05T14:49:17.695Z,5.30
2023-05-05T14:51:44.041Z,4.43
2023-05-05T14:54:24.274Z,4.15
2023-05-05T14:56:54.384Z,3.85
2023-05-05T14:59:20.750Z,7.18
2023-05-05T15:01:48.068Z,7.00
2023-05-05T15:04:14.419Z,3.60
2023-05-05T15:06:40.734Z,4.55
2023-05-05T15:09:07.026Z,11.23
2023-05-05T15:11:33.394Z,3.45
2023-05-05T15:14:00.937Z,4.13
2023-05-05T15:16:27.290Z,4.22
2023-05-05T15:18:53.639Z,4.95
2023-05-05T15:21:19.950Z,4.55
2023-05-05T15:23:46.249Z,4.38
2023-05-05T15:26:12.731Z,4.35
2023-05-05T15:28:39.110Z,2.13
2023-05-05T15:31:06.250Z,4.20
2023-05-05T15:33:33.387Z,2.75
2023-05-05T15:36:00.204Z,5.25
2023-05-05T15:38:28.869Z,5.15
2023-05-05T15:40:55.254Z,2.53
2023-05-05T15:43:21.549Z,2.95
2023-05-05T15:45:47.824Z,3.15
2023-05-05T15:48:14.115Z,4.63
2023-05-05T15:50:40.513Z,3.88
2023-05-05T15:53:06.798Z,6.25
2023-05-05T15:55:33.100Z,5.35
2023-05-05T15:57:59.389Z,3.05
2023-05-05T16:00:25.776Z,3.75
2023-05-05T16:02:52.200Z,4.70
2023-05-05T16:05:20.639Z,4.68
2023-05-05T16:07:48.496Z,6.07
2023-05-05T16:10:14.846Z,3.30
2023-05-05T16:12:41.190Z,5.60
2023-05-05T16:15:08.390Z,6.97
2023-05-05T16:17:34.807Z,4.47
2023-05-05T16:20:01.162Z,3.28
2023-05-05T16:22:27.500Z,4.22
2023-05-05T16:24:53.829Z,2.45
2023-05-05T16:27:20.222Z,3.28
2023-05-05T16:29:46.585Z,3.20
2023-05-05T16:32:12.973Z,2.88
2023-05-05T16:34:39.318Z,3.53
2023-05-05T16:37:05.635Z,5.88
2023-05-05T16:39:32.905Z,5.07
2023-05-05T16:41:59.240Z,9.02
2023-05-05T16:44:25.656Z,5.47
2023-05-05T16:46:52.004Z,2.75
2023-05-05T16:49:18.294Z,2.35
2023-05-05T16:51:44.637Z,6.35
2023-05-05T16:54:10.925Z,4.65
2023-05-05T16:56:37.330Z,4.68
2023-05-05T16:59:03.638Z,6.22
2023-05-05T17:01:30.135Z,2.15
2023-05-05T17:04:01.645Z,4.93
2023-05-05T17:06:34.126Z,2.78
2023-05-05T17:09:00.564Z,3.88
2023-05-05T17:11:26.961Z,4.47
2023-05-05T17:13:53.338Z,2.60
2023-05-05T17:16:19.655Z,2.25
2023-05-05T17:18:46.030Z,2.65
2023-05-05T17:21:12.368Z,3.00
2023-05-05T17:23:38.651Z,2.85
2023-05-05T17:26:05.179Z,2.22
2023-05-05T17:28:31.577Z,3.70
2023-05-05T17:30:59.801Z,2.53
2023-05-05T17:33:26.125Z,6.72
2023-05-05T17:35:52.462Z,4.70
2023-05-05T17:38:18.773Z,4.75
2023-05-05T17:40:45.121Z,2.60
2023-05-05T17:43:11.553Z,1.27
2023-05-05T17:45:37.986Z,4.30
2023-05-05T17:48:04.661Z,6.18
2023-05-05T17:50:31.029Z,1.63
2023-05-05T17:52:57.385Z,2.40
2023-05-05T17:55:23.730Z,1.30
2023-05-05T17:57:50.335Z,1.35
2023-05-05T18:00:18.094Z,3.05
2023-05-05T18:02:44.522Z,1.90
2023-05-05T18:05:11.363Z,2.50
2023-05-05T18:07:38.529Z,2.28
2023-05-05T18:10:06.718Z,2.22
2023-05-05T18:12:33.031Z,3.15
2023-05-05T18:14:59.400Z,2.35
2023-05-05T18:17:26.161Z,4.10
2023-05-05T18:19:52.475Z,1.10
2023-05-05T18:22:18.818Z,2.22
2023-05-05T18:24:46.442Z,2.30
2023-05-05T18:27:12.794Z,3.22
2023-05-05T18:29:39.171Z,3.20
2023-05-05T18:32:06.451Z,1.00
2023-05-05T18:34:32.922Z,5.03
2023-05-05T18:37:00.256Z,2.17
2023-05-05T18:39:26.702Z,1.63
2023-05-05T18:41:53.168Z,1.35
2023-05-05T18:44:20.011Z,3.53
2023-05-05T18:46:49.413Z,3.08
2023-05-05T18:49:16.170Z,3.22
2023-05-05T18:51:43.484Z,2.97
2023-05-05T18:54:09.827Z,4.18
2023-05-05T18:56:36.276Z,4.32
2023-05-05T18:59:02.618Z,3.05
2023-05-05T19:01:29.019Z,3.83
2023-05-05T19:03:55.648Z,3.67
2023-05-05T19:06:22.000Z,2.92
2023-05-05T19:08:48.359Z,2.22
2023-05-05T19:11:14.978Z,3.83
2023-05-05T19:13:41.997Z,1.10
2023-05-05T19:16:08.434Z,6.53
2023-05-05T19:18:34.858Z,2.25
2023-05-05T19:21:01.615Z,5.13
2023-05-05T19:23:28.047Z,2.33
2023-05-05T19:25:54.435Z,2.80
2023-05-05T19:28:21.289Z,9.95
2023-05-05T19:30:48.541Z,2.28
2023-05-05T19:33:15.711Z,4.20
2023-05-05T19:35:42.218Z,6.78
2023-05-05T19:38:10.154Z,4.43
2023-05-05T19:40:40.163Z,1.83
2023-05-05T19:43:07.272Z,2.13
2023-05-05T19:45:33.910Z,5.72
2023-05-05T19:48:03.177Z,1.48
2023-05-05T19:50:30.526Z,2.42
2023-05-05T19:52:57.597Z,3.47
2023-05-05T19:55:24.330Z,2.90
2023-05-05T19:57:50.702Z,6.53
2023-05-05T20:00:17.344Z,3.33
2023-05-05T20:02:45.134Z,6.65
2023-05-05T20:05:13.883Z,2.30
2023-05-05T20:07:41.614Z,4.95
2023-05-05T20:10:09.470Z,2.40
2023-05-05T20:12:36.296Z,5.57
2023-05-05T20:15:03.047Z,2.92
2023-05-05T20:17:29.436Z,4.00
2023-05-05T20:19:57.451Z,6.50
2023-05-05T20:22:26.268Z,3.22
2023-05-05T20:24:53.260Z,5.95
2023-05-05T20:27:20.763Z,4.35
2023-05-05T20:29:47.256Z,4.28
2023-05-05T20:32:13.652Z,4.00
2023-05-05T20:34:39.976Z,7.10
2023-05-05T20:37:06.423Z,2.55
2023-05-05T20:39:32.808Z,3.92
2023-05-05T20:41:59.188Z,8.68
2023-05-05T20:44:25.486Z,5.95
2023-05-05T20:46:51.872Z,7.75
2023-05-05T20:49:18.260Z,3.78
2023-05-05T20:51:44.604Z,4.82
2023-05-05T20:54:10.944Z,3.90
2023-05-05T20:56:37.264Z,6.72
2023-05-05T20:59:04.468Z,5.57
2023-05-05T21:01:30.961Z,9.35
2023-05-05T21:03:57.378Z,21.90
2023-05-05T21:06:24.209Z,36.22
2023-05-05T21:08:50.548Z,17.92
2023-05-05T21:11:16.916Z,7.35
2023-05-05T21:13:43.236Z,6.60
2023-05-05T21:16:09.877Z,5.65
2023-05-05T21:18:36.441Z,2.97
2023-05-05T21:21:02.729Z,3.47
2023-05-05T21:23:30.357Z,4.50
2023-05-05T21:25:56.679Z,2.30
2023-05-05T21:28:22.995Z,5.07
2023-05-05T21:31:10.266Z,3.47
2023-05-05T21:33:37.528Z,2.72
2023-05-05T21:36:04.495Z,5.53
2023-05-05T21:38:30.886Z,4.95
2023-05-05T21:40:58.106Z,4.15
2023-05-05T21:43:30.685Z,5.55
2023-05-05T21:46:04.843Z,4.03
2023-05-05T21:48:31.415Z,6.93
2023-05-05T21:50:58.042Z,4.55
2023-05-05T21:53:24.615Z,7.85
2023-05-05T21:55:51.417Z,6.95
2023-05-05T21:58:17.757Z,3.65
2023-05-05T22:00:44.853Z,5.00
2023-05-05T22:03:11.325Z,5.35
2023-05-05T22:05:38.164Z,6.57
2023-05-05T22:08:04.606Z,3.75
2023-05-05T22:10:31.081Z,4.40
2023-05-05T22:12:58.140Z,3.20
2023-05-05T22:15:27.700Z,3.58
2023-05-05T22:17:56.536Z,4.47
2023-05-05T22:20:22.993Z,6.03
2023-05-05T22:22:49.435Z,6.15
2023-05-05T22:25:16.122Z,2.50
2023-05-05T22:27:42.794Z,5.45
2023-05-05T22:30:09.624Z,6.15
2023-05-05T22:32:35.964Z,3.10
2023-05-05T22:35:02.342Z,2.60
2023-05-05T22:37:28.752Z,2.55
2023-05-05T22:39:55.029Z,2.75
2023-05-05T22:42:21.532Z,3.33
2023-05-05T22:44:47.884Z,3.60
2023-05-05T22:47:14.297Z,3.42
2023-05-05T22:49:40.701Z,4.13
2023-05-05T22:52:07.291Z,8.88
2023-05-05T22:54:33.671Z,3.15
2023-05-05T22:57:00.047Z,5.28
2023-05-05T22:59:26.395Z,4.25
2023-05-05T23:01:52.711Z,5.93
2023-05-05T23:04:19.193Z,6.90
2023-05-05T23:06:46.127Z,6.00
2023-05-05T23:09:12.840Z,2.88
2023-05-05T23:11:39.328Z,3.45
2023-05-05T23:14:05.709Z,3.88
2023-05-05T23:16:32.131Z,3.80
2023-05-05T23:18:58.494Z,3.75
2023-05-05T23:21:24.822Z,4.30
2023-05-05T23:23:51.228Z,2.20
2023-05-05T23:26:17.599Z,47.42
2023-05-05T23:28:43.958Z,31.67
2023-05-05T23:31:10.377Z,34.50
2023-05-05T23:33:36.866Z,14.30
2023-05-05T23:36:03.804Z,10.52
2023-05-05T23:38:30.282Z,5.05
2023-05-05T23:40:56.605Z,2.72
2023-05-05T23:43:22.940Z,5.03
2023-05-05T23:45:49.327Z,6.57
2023-05-05T23:48:15.692Z,5.55
2023-05-05T23:50:42.326Z,3.72
2023-05-05T23:53:09.553Z,7.15
2023-05-05T23:55:35.916Z,14.00
2023-05-05T23:58:02.312Z,8.50
